createdAt,value
2023-04-09T00:02:36.411Z,24.20
2023-04-09T00:05:17.441Z,23.30
2023-04-09T00:08:09.702Z,21.60
2023-04-09T00:10:50.253Z,20.50
2023-04-09T00:13:42.276Z,21.70
2023-04-09T00:16:34.421Z,20.20
2023-04-09T00:19:14.717Z,21.00
2023-04-09T00:22:06.776Z,20.20
2023-04-09T00:24:58.778Z,20.90
2023-04-09T00:27:33.371Z,22.40
2023-04-09T00:30:25.846Z,19.10
2023-04-09T00:33:17.774Z,21.50
2023-04-09T00:36:10.181Z,24.70
2023-04-09T00:38:48.593Z,22.80
2023-04-09T00:41:29.422Z,23.20
2023-04-09T00:44:11.453Z,23.90
2023-04-09T00:46:55.028Z,22.90
2023-04-09T00:49:47.114Z,21.60
2023-04-09T00:52:39.155Z,22.20
2023-04-09T00:55:23.623Z,20.30
2023-04-09T00:58:16.622Z,18.00
2023-04-09T01:01:08.672Z,18.50
2023-04-09T01:04:01.003Z,18.70
2023-04-09T01:06:56.913Z,19.20
2023-04-09T01:09:55.468Z,17.70
2023-04-09T01:13:02.671Z,19.50
2023-04-09T01:15:58.223Z,18.40
2023-04-09T01:18:54.459Z,18.80
2023-04-09T01:21:47.230Z,20.00
2023-04-09T01:24:53.803Z,18.90
2023-04-09T01:27:45.891Z,19.10
2023-04-09T01:30:38.330Z,19.40
2023-04-09T01:33:32.729Z,19.40
2023-04-09T01:36:25.814Z,19.10
2023-04-09T01:39:18.315Z,21.10
2023-04-09T01:42:12.745Z,21.20
2023-04-09T01:45:06.695Z,20.00
2023-04-09T01:47:59.044Z,22.20
2023-04-09T01:50:52.107Z,19.10
2023-04-09T01:53:44.416Z,18.50
2023-04-09T01:56:44.903Z,18.50
2023-04-09T01:59:36.872Z,18.00
2023-04-09T02:02:38.156Z,18.40
2023-04-09T02:05:37.090Z,19.00
2023-04-09T02:08:26.232Z,17.90
2023-04-09T02:11:19.641Z,19.10
2023-04-09T02:14:13.099Z,19.10
2023-04-09T02:17:05.950Z,18.70
2023-04-09T02:19:58.180Z,17.10
2023-04-09T02:22:50.372Z,18.10
2023-04-09T02:25:42.432Z,18.00
2023-04-09T02:28:34.421Z,18.30
2023-04-09T02:31:26.529Z,18.80
2023-04-09T02:34:18.493Z,18.60
2023-04-09T02:37:10.617Z,18.70
2023-04-09T02:39:45.623Z,19.10
2023-04-09T02:42:26.752Z,21.50
2023-04-09T02:45:18.863Z,20.20
2023-04-09T02:48:10.994Z,19.80
2023-04-09T02:50:46.150Z,21.00
2023-04-09T02:53:40.681Z,20.00
2023-04-09T02:56:17.835Z,20.80
2023-04-09T02:59:09.817Z,23.60
2023-04-09T03:02:01.823Z,22.40
2023-04-09T03:04:54.090Z,22.20
2023-04-09T03:07:29.070Z,23.00
2023-04-09T03:10:04.178Z,22.90
2023-04-09T03:12:56.200Z,19.90
2023-04-09T03:15:30.877Z,22.10
2023-04-09T03:18:05.506Z,20.80
2023-04-09T03:20:41.990Z,20.60
2023-04-09T03:23:16.782Z,20.80
2023-04-09T03:26:08.891Z,21.10
2023-04-09T03:29:01.125Z,22.10
2023-04-09T03:31:53.045Z,21.30
2023-04-09T03:34:45.011Z,21.60
2023-04-09T03:37:37.071Z,21.70
2023-04-09T03:40:13.702Z,21.70
2023-04-09T03:42:48.242Z,22.40
2023-04-09T03:45:40.230Z,22.40
2023-04-09T03:48:32.209Z,22.10
2023-04-09T03:51:24.184Z,19.20
2023-04-09T03:54:16.374Z,19.50
2023-04-09T03:57:08.458Z,20.10
2023-04-09T04:00:00.493Z,20.50
2023-04-09T04:02:52.778Z,21.30
2023-04-09T04:05:44.985Z,21.50
2023-04-09T04:08:37.044Z,23.60
2023-04-09T04:11:29.037Z,24.20
2023-04-09T04:14:21.161Z,23.40
2023-04-09T04:17:13.293Z,23.80
2023-04-09T04:20:05.772Z,21.70
2023-04-09T04:22:57.683Z,26.70
2023-04-09T04:25:49.664Z,24.30
2023-04-09T04:31:23.417Z,23.20
2023-04-09T04:34:15.406Z,23.90
2023-04-09T04:37:07.394Z,25.00
2023-04-09T04:39:59.932Z,24.60
2023-04-09T04:42:34.562Z,25.40
2023-04-09T04:45:26.547Z,26.70
2023-04-09T04:48:18.508Z,26.50
2023-04-09T04:51:10.518Z,27.80
2023-04-09T04:54:02.592Z,25.40
2023-04-09T04:56:54.587Z,26.80
2023-04-09T04:59:46.665Z,27.30
2023-04-09T05:02:28.945Z,27.70
2023-04-09T05:05:21.055Z,28.70
2023-04-09T05:08:13.195Z,29.50
2023-04-09T05:11:05.360Z,28.90
2023-04-09T05:13:57.360Z,28.80
2023-04-09T05:16:49.500Z,27.00
2023-04-09T05:19:41.593Z,26.80
2023-04-09T05:22:33.606Z,28.50
2023-04-09T05:25:25.704Z,27.40
2023-04-09T05:28:08.135Z,27.70
2023-04-09T05:31:00.355Z,27.10
2023-04-09T05:33:52.877Z,26.10
2023-04-09T05:36:44.951Z,25.60
2023-04-09T05:39:36.912Z,28.10
2023-04-09T05:42:29.019Z,25.60
2023-04-09T05:45:21.104Z,26.80
2023-04-09T05:48:13.123Z,25.10
2023-04-09T05:50:56.162Z,26.00
2023-04-09T05:53:48.191Z,26.10
2023-04-09T05:56:40.296Z,27.90
2023-04-09T05:59:32.328Z,26.60
2023-04-09T06:02:24.916Z,25.20
2023-04-09T06:05:17.303Z,25.10
2023-04-09T06:08:09.292Z,25.50
2023-04-09T06:10:56.369Z,25.30
2023-04-09T06:13:38.887Z,26.80
2023-04-09T06:16:30.852Z,22.90
2023-04-09T06:19:12.411Z,24.10
2023-04-09T06:22:04.430Z,24.30
2023-04-09T06:24:56.442Z,25.00
2023-04-09T06:27:39.696Z,22.70
2023-04-09T06:30:28.151Z,21.30
2023-04-09T06:33:20.342Z,21.30
2023-04-09T06:36:12.406Z,21.30
2023-04-09T06:39:04.498Z,20.60
2023-04-09T06:41:56.572Z,20.70
2023-04-09T06:44:48.655Z,20.80
2023-04-09T06:47:41.014Z,19.10
2023-04-09T06:50:33.131Z,20.00
2023-04-09T06:53:10.339Z,20.60
2023-04-09T06:56:02.570Z,21.50
2023-04-09T06:58:54.368Z,19.70
2023-04-09T07:01:47.706Z,21.90
2023-04-09T07:04:22.733Z,20.40
2023-04-09T07:07:14.970Z,17.20
2023-04-09T07:10:08.323Z,18.00
2023-04-09T07:13:00.532Z,19.10
2023-04-09T07:15:52.609Z,18.70
2023-04-09T07:18:44.605Z,19.20
2023-04-09T07:21:26.534Z,18.60
2023-04-09T07:24:03.914Z,18.20
2023-04-09T07:26:56.322Z,17.40
2023-04-09T07:29:48.648Z,18.30
2023-04-09T07:32:40.713Z,18.40
2023-04-09T07:35:34.701Z,18.10
2023-04-09T07:38:28.822Z,17.80
2023-04-09T07:41:20.871Z,19.00
2023-04-09T07:44:13.684Z,16.50
2023-04-09T07:47:07.524Z,18.40
2023-04-09T07:49:59.663Z,20.50
2023-04-09T07:52:51.753Z,21.60
2023-04-09T07:55:43.898Z,21.60
2023-04-09T07:58:19.198Z,22.30
2023-04-09T08:01:11.222Z,24.40
2023-04-09T08:04:03.934Z,21.70
2023-04-09T08:06:56.284Z,22.40
2023-04-09T08:09:48.829Z,20.60
2023-04-09T08:12:40.809Z,21.60
2023-04-09T08:15:32.893Z,21.00
2023-04-09T08:18:24.860Z,21.90
2023-04-09T08:20:59.765Z,23.70
2023-04-09T08:23:51.733Z,23.90
2023-04-09T08:26:44.767Z,22.20
2023-04-09T08:29:36.886Z,26.30
2023-04-09T08:32:28.885Z,25.80
2023-04-09T08:35:06.660Z,26.00
2023-04-09T08:38:00.149Z,26.30
2023-04-09T08:40:52.285Z,24.40
2023-04-09T08:43:57.021Z,25.70
2023-04-09T08:46:51.159Z,26.40
2023-04-09T08:49:43.352Z,24.50
2023-04-09T08:52:37.812Z,23.40
2023-04-09T08:55:31.181Z,69.00
2023-04-09T08:58:09.498Z,35.20
2023-04-09T09:01:02.404Z,24.80
2023-04-09T09:04:00.854Z,21.20
2023-04-09T09:06:55.438Z,25.80
2023-04-09T09:09:57.010Z,27.10
2023-04-09T09:12:49.202Z,20.60
2023-04-09T09:15:41.229Z,22.30
2023-04-09T09:18:42.597Z,22.70
2023-04-09T09:21:36.318Z,18.60
2023-04-09T09:24:20.276Z,28.50
2023-04-09T09:26:58.849Z,24.30
2023-04-09T09:29:44.904Z,19.20
2023-04-09T09:32:37.721Z,27.40
2023-04-09T09:35:18.620Z,23.10
2023-04-09T09:38:05.912Z,18.40
2023-04-09T09:40:57.891Z,19.20
2023-04-09T09:43:44.038Z,18.50
2023-04-09T09:46:38.645Z,18.70
2023-04-09T09:49:30.731Z,17.70
2023-04-09T09:52:14.303Z,15.70
2023-04-09T09:55:09.197Z,21.20
2023-04-09T09:58:03.631Z,19.30
2023-04-09T10:00:57.499Z,33.00
2023-04-09T10:03:50.974Z,34.50
2023-04-09T10:06:46.059Z,16.10
2023-04-09T10:09:41.435Z,14.20
2023-04-09T10:12:31.058Z,15.50
2023-04-09T10:15:13.880Z,16.00
2023-04-09T10:18:06.028Z,16.10
2023-04-09T10:21:03.141Z,79.10
2023-04-09T10:23:43.119Z,19.90
2023-04-09T10:26:37.357Z,16.50
2023-04-09T10:29:31.459Z,31.30
2023-04-09T10:32:26.643Z,18.10
2023-04-09T10:35:28.930Z,16.00
2023-04-09T10:38:36.324Z,17.70
2023-04-09T10:41:32.042Z,15.00
2023-04-09T10:44:25.390Z,17.00
2023-04-09T10:47:34.821Z,16.50
2023-04-09T10:50:30.756Z,16.40
2023-04-09T10:53:27.682Z,16.20
2023-04-09T10:56:02.643Z,16.90
2023-04-09T10:58:54.614Z,16.90
2023-04-09T11:01:36.928Z,15.50
2023-04-09T11:04:38.050Z,15.60
2023-04-09T11:07:32.133Z,19.70
2023-04-09T11:10:24.248Z,17.70
2023-04-09T11:13:17.613Z,20.70
2023-04-09T11:15:55.457Z,23.20
2023-04-09T11:18:31.490Z,17.10
2023-04-09T11:21:27.735Z,18.80
2023-04-09T11:24:21.312Z,22.10
2023-04-09T11:27:13.594Z,18.40
2023-04-09T11:30:06.435Z,16.20
2023-04-09T11:32:58.563Z,15.80
2023-04-09T11:35:37.431Z,15.50
2023-04-09T11:38:14.979Z,15.20
2023-04-09T11:41:07.150Z,15.40
2023-04-09T11:43:59.154Z,15.90
2023-04-09T11:46:51.995Z,14.20
2023-04-09T11:49:45.117Z,15.80
2023-04-09T11:52:37.859Z,12.90
2023-04-09T11:55:31.879Z,11.70
2023-04-09T11:58:26.475Z,11.80
2023-04-09T12:01:18.514Z,13.20
2023-04-09T12:04:11.227Z,15.80
2023-04-09T12:07:03.501Z,15.20
2023-04-09T12:09:55.470Z,15.40
2023-04-09T12:12:49.033Z,15.70
2023-04-09T12:15:43.541Z,14.00
2023-04-09T12:18:38.490Z,17.30
2023-04-09T12:21:47.896Z,30.60
2023-04-09T12:24:40.003Z,17.00
2023-04-09T12:27:33.955Z,17.00
2023-04-09T12:30:26.286Z,12.60
2023-04-09T12:33:18.316Z,11.50
2023-04-09T12:36:10.590Z,11.40
2023-04-09T12:39:02.675Z,11.20
2023-04-09T12:41:39.639Z,10.40
2023-04-09T12:44:33.102Z,11.70
2023-04-09T12:47:25.153Z,10.50
2023-04-09T12:50:10.496Z,11.00
2023-04-09T12:53:02.421Z,11.80
2023-04-09T12:55:54.454Z,13.20
2023-04-09T12:58:46.390Z,9.30
2023-04-09T13:01:39.230Z,10.00
2023-04-09T13:04:28.811Z,9.70
2023-04-09T13:07:21.445Z,9.70
2023-04-09T13:10:13.579Z,9.90
2023-04-09T13:13:06.154Z,10.00
2023-04-09T13:15:58.159Z,9.80
2023-04-09T13:18:41.082Z,11.60
2023-04-09T13:21:33.111Z,10.00
2023-04-09T13:24:25.176Z,8.30
2023-04-09T13:27:09.790Z,9.40
2023-04-09T13:30:01.928Z,8.80
2023-04-09T13:32:53.931Z,9.40
2023-04-09T13:35:46.780Z,9.00
2023-04-09T13:38:39.385Z,6.40
2023-04-09T13:41:31.996Z,6.00
2023-04-09T13:44:24.110Z,7.20
2023-04-09T13:47:17.860Z,6.40
2023-04-09T13:50:01.485Z,6.90
2023-04-09T13:52:53.550Z,6.30
2023-04-09T13:55:41.561Z,8.90
2023-04-09T13:58:23.715Z,8.90
2023-04-09T14:00:58.239Z,8.80
2023-04-09T14:03:52.584Z,9.60
2023-04-09T14:06:45.156Z,9.40
2023-04-09T14:09:37.197Z,9.10
2023-04-09T14:12:29.183Z,8.90
2023-04-09T14:15:22.100Z,7.20
2023-04-09T14:18:14.127Z,7.00
2023-04-09T14:21:08.723Z,7.30
2023-04-09T14:24:02.192Z,8.00
2023-04-09T14:26:54.187Z,7.40
2023-04-09T14:29:46.213Z,8.40
2023-04-09T14:32:38.475Z,8.10
2023-04-09T14:35:30.608Z,9.60
2023-04-09T14:38:04.380Z,12.20
2023-04-09T14:40:56.442Z,14.30
2023-04-09T14:43:48.371Z,14.10
2023-04-09T14:46:40.465Z,15.70
2023-04-09T14:49:32.571Z,12.80
2023-04-09T14:52:24.591Z,13.00
2023-04-09T14:55:16.731Z,13.70
2023-04-09T14:58:08.697Z,13.40
2023-04-09T15:01:00.697Z,10.40
2023-04-09T15:03:52.832Z,10.30
2023-04-09T15:06:45.366Z,9.80
2023-04-09T15:09:37.366Z,10.90
2023-04-09T15:12:29.824Z,10.60
2023-04-09T15:15:21.838Z,11.10
2023-04-09T15:18:05.920Z,11.10
2023-04-09T15:20:58.196Z,11.60
2023-04-09T15:23:51.055Z,12.20
2023-04-09T15:26:43.205Z,11.80
2023-04-09T15:29:36.261Z,9.70
2023-04-09T15:32:29.587Z,11.60
2023-04-09T15:35:25.119Z,10.70
2023-04-09T15:38:17.583Z,10.50
2023-04-09T15:41:10.494Z,10.90
2023-04-09T15:44:02.549Z,10.10
2023-04-09T15:46:38.452Z,11.90
2023-04-09T15:49:30.594Z,10.20
2023-04-09T15:52:02.629Z,10.90
2023-04-09T15:54:55.049Z,10.90
2023-04-09T15:57:47.160Z,10.80
2023-04-09T16:00:39.174Z,10.60
2023-04-09T16:03:20.551Z,11.60
2023-04-09T16:06:13.058Z,13.70
2023-04-09T16:09:05.246Z,14.80
2023-04-09T16:11:57.279Z,13.90
2023-04-09T16:14:49.293Z,13.40
2023-04-09T16:17:41.394Z,12.10
2023-04-09T16:20:33.448Z,12.80
2023-04-09T16:23:27.037Z,12.20
2023-04-09T16:26:19.034Z,12.70
2023-04-09T16:29:11.194Z,12.70
2023-04-09T16:32:03.994Z,14.10
2023-04-09T16:35:00.433Z,13.30
2023-04-09T16:37:52.999Z,13.40
2023-04-09T16:40:45.962Z,14.20
2023-04-09T16:43:38.342Z,14.40
2023-04-09T16:46:30.933Z,15.60
2023-04-09T16:49:23.339Z,13.50
2023-04-09T16:52:15.618Z,13.80
2023-04-09T16:55:08.987Z,14.90
2023-04-09T16:58:01.647Z,15.50
2023-04-09T17:00:53.629Z,17.50
2023-04-09T17:03:46.106Z,16.40
2023-04-09T17:06:35.776Z,18.90
2023-04-09T17:09:27.836Z,19.20
2023-04-09T17:12:04.870Z,17.60
2023-04-09T17:14:57.920Z,16.30
2023-04-09T17:17:53.092Z,16.30
2023-04-09T17:20:45.083Z,12.60
2023-04-09T17:23:37.875Z,12.10
2023-04-09T17:26:30.394Z,12.40
2023-04-09T17:29:22.611Z,11.50
2023-04-09T17:32:14.675Z,10.80
2023-04-09T17:35:08.071Z,10.70
2023-04-09T17:38:00.232Z,11.30
2023-04-09T17:40:54.067Z,15.30
2023-04-09T17:43:46.109Z,22.40
2023-04-09T17:46:39.169Z,23.40
2023-04-09T17:49:11.892Z,21.00
2023-04-09T17:51:46.659Z,16.20
2023-04-09T17:54:39.141Z,13.50
2023-04-09T17:57:13.887Z,13.50
2023-04-09T17:59:57.318Z,11.20
2023-04-09T18:02:52.339Z,10.10
2023-04-09T18:05:45.064Z,9.50
2023-04-09T18:08:37.479Z,10.00
2023-04-09T18:11:15.527Z,9.70
2023-04-09T18:14:08.099Z,9.80
2023-04-09T18:17:08.441Z,10.00
2023-04-09T18:19:45.711Z,9.90
2023-04-09T18:22:22.745Z,9.70
2023-04-09T18:25:15.006Z,10.80
2023-04-09T18:27:52.063Z,10.10
2023-04-09T18:30:44.523Z,10.60
2023-04-09T18:33:37.054Z,10.60
2023-04-09T18:36:29.240Z,10.60
2023-04-09T18:39:07.059Z,11.10
2023-04-09T18:41:59.582Z,11.30
2023-04-09T18:44:51.598Z,9.60
2023-04-09T18:47:44.037Z,10.00
2023-04-09T18:50:21.521Z,11.20
2023-04-09T18:53:05.571Z,11.40
2023-04-09T18:55:57.577Z,12.20
2023-04-09T18:58:51.836Z,12.20
2023-04-09T19:01:44.207Z,10.10
2023-04-09T19:04:39.835Z,9.30
2023-04-09T19:07:33.616Z,9.40
2023-04-09T19:10:22.220Z,10.00
2023-04-09T19:12:59.387Z,10.80
2023-04-09T19:15:51.382Z,10.10
2023-04-09T19:18:26.630Z,10.30
2023-04-09T19:21:18.653Z,10.90
2023-04-09T19:24:10.971Z,11.20
2023-04-09T19:27:09.115Z,11.70
2023-04-09T19:30:01.159Z,11.10
2023-04-09T19:32:38.689Z,12.60
2023-04-09T19:35:32.968Z,12.00
2023-04-09T19:38:25.394Z,12.40
2023-04-09T19:41:17.574Z,13.70
2023-04-09T19:44:07.403Z,12.60
2023-04-09T19:46:59.486Z,13.70
2023-04-09T19:49:41.574Z,13.90
2023-04-09T19:52:33.781Z,14.10
2023-04-09T19:55:26.316Z,13.80
2023-04-09T19:58:18.447Z,14.70
2023-04-09T20:01:10.712Z,15.80
2023-04-09T20:04:03.041Z,14.80
2023-04-09T20:06:55.735Z,14.40
2023-04-09T20:09:33.059Z,14.80
2023-04-09T20:12:08.766Z,15.10
2023-04-09T20:15:02.812Z,13.30
2023-04-09T20:17:54.793Z,14.60
2023-04-09T20:20:46.904Z,16.20
2023-04-09T20:23:39.003Z,15.50
2023-04-09T20:26:31.136Z,14.90
2023-04-09T20:29:03.109Z,17.00
2023-04-09T20:31:55.565Z,16.40
2023-04-09T20:34:47.789Z,16.80
2023-04-09T20:37:24.876Z,15.80
2023-04-09T20:40:03.242Z,16.00
2023-04-09T20:42:55.546Z,16.50
2023-04-09T20:45:47.695Z,15.90
2023-04-09T20:48:39.834Z,15.30
2023-04-09T20:51:23.359Z,15.70
2023-04-09T20:54:17.935Z,16.80
2023-04-09T20:57:10.622Z,15.40
2023-04-09T21:00:04.554Z,16.60
2023-04-09T21:02:56.791Z,16.90
2023-04-09T21:05:48.903Z,19.00
2023-04-09T21:08:29.682Z,20.00
2023-04-09T21:11:21.635Z,19.30
2023-04-09T21:14:14.631Z,18.50
2023-04-09T21:17:06.731Z,17.80
2023-04-09T21:19:58.791Z,17.10
2023-04-09T21:22:50.815Z,17.80
2023-04-09T21:25:43.051Z,16.70
2023-04-09T21:28:26.279Z,17.50
2023-04-09T21:31:18.378Z,17.50
2023-04-09T21:34:10.438Z,17.20
2023-04-09T21:37:04.581Z,17.30
2023-04-09T21:39:56.509Z,19.20
2023-04-09T21:42:48.496Z,19.70
2023-04-09T21:45:21.097Z,20.50
2023-04-09T21:48:13.769Z,19.70
2023-04-09T21:51:09.729Z,19.90
2023-04-09T21:53:52.071Z,18.20
2023-04-09T21:56:44.047Z,19.40
2023-04-09T21:59:37.084Z,18.00
2023-04-09T22:02:29.740Z,16.40
2023-04-09T22:05:21.815Z,16.20
2023-04-09T22:08:13.837Z,16.30
2023-04-09T22:11:06.126Z,17.40
2023-04-09T22:13:58.237Z,16.80
2023-04-09T22:16:40.925Z,16.80
2023-04-09T22:19:33.895Z,16.10
2023-04-09T22:22:25.903Z,17.90
2023-04-09T22:25:17.883Z,16.90
2023-04-09T22:28:09.861Z,17.50
2023-04-09T22:31:02.469Z,17.50
2023-04-09T22:33:54.474Z,18.20
2023-04-09T22:36:46.466Z,18.10
2023-04-09T22:39:38.498Z,16.70
2023-04-09T22:42:30.565Z,18.40
2023-04-09T22:45:22.638Z,16.10
2023-04-09T22:48:14.909Z,17.40
2023-04-09T22:51:07.853Z,18.40
2023-04-09T22:53:59.885Z,18.60
2023-04-09T22:56:41.989Z,19.40
2023-04-09T22:59:39.714Z,18.40
2023-04-09T23:02:33.064Z,18.20
2023-04-09T23:05:25.441Z,19.70
2023-04-09T23:08:17.469Z,18.10
2023-04-09T23:11:10.359Z,18.90
2023-04-09T23:14:02.724Z,20.40
2023-04-09T23:16:54.737Z,19.30
2023-04-09T23:19:46.716Z,21.60
2023-04-09T23:22:28.700Z,20.40
2023-04-09T23:25:21.794Z,19.90
2023-04-09T23:27:56.348Z,20.10
2023-04-09T23:30:48.299Z,19.30
2023-04-09T23:33:40.379Z,19.70
2023-04-09T23:36:32.674Z,20.70
2023-04-09T23:39:24.696Z,19.30
2023-04-09T23:42:16.727Z,21.10
2023-04-09T23:45:10.381Z,21.50
2023-04-09T23:48:03.273Z,20.30
2023-04-09T23:50:55.349Z,23.00
2023-04-09T23:53:47.710Z,23.80
2023-04-09T23:56:23.117Z,22.80
2023-04-09T23:59:00.614Z,22.50
